sensor_id;sensor_type;location;lat;lon;timestamp;pressure;altitude;pressure_sealevel;temperature;humidity
57600;BME280;43426;43.594;24.334;2023-02-13T00:01:31;103231.53;;;-2.03;100.00
57600;BME280;43426;43.594;24.334;2023-02-13T00:03:56;103250.75;;;-1.95;100.00
57600;BME280;43426;43.594;24.334;2023-02-13T00:06:22;103284.00;;;-1.80;100.00
57600;BME280;43426;43.594;24.334;2023-02-13T00:08:47;103250.56;;;-1.84;100.00
57600;BME280;43426;43.594;24.334;2023-02-13T00:11:13;103283.09;;;-1.79;100.00
57600;BME280;43426;43.594;24.334;2023-02-13T00:13:38;103262.22;;;-1.95;100.00
57600;BME280;43426;43.594;24.334;2023-02-13T00:16:04;103273.38;;;-1.77;100.00
57600;BME280;43426;43.594;24.334;2023-02-13T00:18:33;103252.19;;;-1.76;100.00
57600;BME280;43426;43.594;24.334;2023-02-13T00:21:02;103270.44;;;-1.62;100.00
57600;BME280;43426;43.594;24.334;2023-02-13T00:23:29;103267.81;;;-1.63;100.00
57600;BME280;43426;43.594;24.334;2023-02-13T00:25:56;103273.69;;;-1.47;100.00
57600;BME280;43426;43.594;24.334;2023-02-13T00:28:21;103261.47;;;-1.55;100.00
57600;BME280;43426;43.594;24.334;2023-02-13T00:30:47;103268.41;;;-1.49;100.00
57600;BME280;43426;43.594;24.334;2023-02-13T00:33:12;103238.78;;;-1.68;100.00
57600;BME280;43426;43.594;24.334;2023-02-13T00:35:37;103265.84;;;-1.52;100.00
57600;BME280;43426;43.594;24.334;2023-02-13T00:38:03;103264.81;;;-1.45;100.00
57600;BME280;43426;43.594;24.334;2023-02-13T00:40:28;103263.00;;;-1.41;100.00
57600;BME280;43426;43.594;24.334;2023-02-13T00:42:54;103237.00;;;-1.66;100.00
57600;BME280;43426;43.594;24.334;2023-02-13T00:45:19;103238.84;;;-1.71;100.00
57600;BME280;43426;43.594;24.334;2023-02-13T00:47:44;103240.63;;;-1.72;100.00
57600;BME280;43426;43.594;24.334;2023-02-13T00:50:10;103245.59;;;-1.55;100.00
57600;BME280;43426;43.594;24.334;2023-02-13T00:52:35;103248.56;;;-1.73;100.00
57600;BME280;43426;43.594;24.334;2023-02-13T00:55:00;103285.66;;;-1.75;100.00
57600;BME280;43426;43.594;24.334;2023-02-13T00:57:26;103272.75;;;-1.92;100.00
57600;BME280;43426;43.594;24.334;2023-02-13T00:59:51;103300.72;;;-1.77;100.00
57600;BME280;43426;43.594;24.334;2023-02-13T01:02:17;103306.63;;;-1.62;100.00
57600;BME280;43426;43.594;24.334;2023-02-13T01:04:42;103274.09;;;-1.67;100.00
57600;BME280;43426;43.594;24.334;2023-02-13T01:07:07;103274.09;;;-1.67;100.00
57600;BME280;43426;43.594;24.334;2023-02-13T01:09:33;103301.91;;;-1.46;100.00
57600;BME280;43426;43.594;24.334;2023-02-13T01:11:58;103277.44;;;-1.58;100.00
57600;BME280;43426;43.594;24.334;2023-02-13T01:14:24;103311.56;;;-1.42;100.00
57600;BME280;43426;43.594;24.334;2023-02-13T01:16:49;103317.44;;;-1.28;100.00
57600;BME280;43426;43.594;24.334;2023-02-13T01:19:15;103314.31;;;-1.03;100.00
57600;BME280;43426;43.594;24.334;2023-02-13T01:21:41;103317.94;;;-1.09;100.00
57600;BME280;43426;43.594;24.334;2023-02-13T01:24:07;103314.72;;;-1.23;100.00
57600;BME280;43426;43.594;24.334;2023-02-13T01:26:32;103286.53;;;-1.73;100.00
57600;BME280;43426;43.594;24.334;2023-02-13T01:28:58;103288.19;;;-1.67;100.00
57600;BME280;43426;43.594;24.334;2023-02-13T01:31:24;103325.03;;;-1.55;100.00
57600;BME280;43426;43.594;24.334;2023-02-13T01:33:50;103314.72;;;-1.70;100.00
57600;BME280;43426;43.594;24.334;2023-02-13T01:36:15;103314.13;;;-1.88;100.00
57600;BME280;43426;43.594;24.334;2023-02-13T01:38:41;103305.84;;;-2.20;100.00
57600;BME280;43426;43.594;24.334;2023-02-13T01:41:07;103304.09;;;-2.20;100.00
57600;BME280;43426;43.594;24.334;2023-02-13T01:44:02;103314.69;;;-2.21;100.00
57600;BME280;43426;43.594;24.334;2023-02-13T01:46:40;103286.84;;;-2.46;100.00
57600;BME280;43426;43.594;24.334;2023-02-13T01:49:28;103317.53;;;-2.34;100.00
57600;BME280;43426;43.594;24.334;2023-02-13T01:51:54;103286.34;;;-2.71;100.00
57600;BME280;43426;43.594;24.334;2023-02-13T01:54:24;103302.88;;;-2.58;100.00
57600;BME280;43426;43.594;24.334;2023-02-13T01:56:59;103270.63;;;-2.82;100.00
57600;BME280;43426;43.594;24.334;2023-02-13T01:59:52;103304.72;;;-2.63;100.00
57600;BME280;43426;43.594;24.334;2023-02-13T02:02:19;103282.03;;;-2.77;100.00
57600;BME280;43426;43.594;24.334;2023-02-13T02:04:46;103242.56;;;-2.89;100.00
57600;BME280;43426;43.594;24.334;2023-02-13T02:07:26;103280.16;;;-2.70;100.00
57600;BME280;43426;43.594;24.334;2023-02-13T02:09:58;103282.19;;;-2.89;100.00
57600;BME280;43426;43.594;24.334;2023-02-13T02:12:52;103255.19;;;-3.11;100.00
57600;BME280;43426;43.594;24.334;2023-02-13T02:15:20;103258.56;;;-3.00;100.00
57600;BME280;43426;43.594;24.334;2023-02-13T02:17:45;103242.06;;;-3.17;100.00
57600;BME280;43426;43.594;24.334;2023-02-13T02:22:51;103282.03;;;-2.77;100.00
57600;BME280;43426;43.594;24.334;2023-02-13T02:31:20;103283.16;;;-2.95;100.00
57600;BME280;43426;43.594;24.334;2023-02-13T02:36:08;103284.84;;;-2.89;100.00
57600;BME280;43426;43.594;24.334;2023-02-13T02:58:15;103280.97;;;-4.22;100.00
57600;BME280;43426;43.594;24.334;2023-02-13T03:01:05;103282.38;;;-3.82;100.00
57600;BME280;43426;43.594;24.334;2023-02-13T03:03:49;103269.41;;;-4.05;100.00
57600;BME280;43426;43.594;24.334;2023-02-13T03:06:56;103271.25;;;-4.17;100.00
57600;BME280;43426;43.594;24.334;2023-02-13T03:09:29;103273.00;;;-4.16;100.00
57600;BME280;43426;43.594;24.334;2023-02-13T03:12:19;103266.91;;;-4.21;100.00
57600;BME280;43426;43.594;24.334;2023-02-13T03:15:05;103283.66;;;-4.25;100.00
57600;BME280;43426;43.594;24.334;2023-02-13T03:17:31;103248.47;;;-4.25;100.00
57600;BME280;43426;43.594;24.334;2023-02-13T03:23:21;103272.19;;;-4.25;100.00
57600;BME280;43426;43.594;24.334;2023-02-13T03:25:56;103276.31;;;-3.94;100.00
57600;BME280;43426;43.594;24.334;2023-02-13T03:28:34;103280.84;;;-4.08;100.00
57600;BME280;43426;43.594;24.334;2023-02-13T03:34:23;103278.44;;;-4.34;100.00
57600;BME280;43426;43.594;24.334;2023-02-13T03:36:58;103278.50;;;-4.43;100.00
57600;BME280;43426;43.594;24.334;2023-02-13T03:39:53;103295.25;;;-4.52;100.00
57600;BME280;43426;43.594;24.334;2023-02-13T03:42:41;103285.59;;;-4.55;100.00
57600;BME280;43426;43.594;24.334;2023-02-13T03:45:22;103286.53;;;-4.60;100.00
57600;BME280;43426;43.594;24.334;2023-02-13T03:48:08;103283.91;;;-4.62;100.00
57600;BME280;43426;43.594;24.334;2023-02-13T03:50:55;103296.25;;;-4.75;100.00
57600;BME280;43426;43.594;24.334;2023-02-13T03:53:22;103285.84;;;-4.97;100.00
57600;BME280;43426;43.594;24.334;2023-02-13T03:55:50;103299.00;;;-4.97;100.00
57600;BME280;43426;43.594;24.334;2023-02-13T03:58:36;103293.75;;;-5.03;100.00
57600;BME280;43426;43.594;24.334;2023-02-13T04:01:26;103289.38;;;-5.07;100.00
57600;BME280;43426;43.594;24.334;2023-02-13T04:04:00;103253.47;;;-5.23;100.00
57600;BME280;43426;43.594;24.334;2023-02-13T04:06:42;103270.97;;;-5.08;100.00
57600;BME280;43426;43.594;24.334;2023-02-13T04:09:10;103279.78;;;-5.17;100.00
57600;BME280;43426;43.594;24.334;2023-02-13T04:11:46;103310.44;;;-5.07;100.00
57600;BME280;43426;43.594;24.334;2023-02-13T04:14:24;103302.53;;;-5.01;100.00
57600;BME280;43426;43.594;24.334;2023-02-13T04:17:03;103277.13;;;-5.13;100.00
57600;BME280;43426;43.594;24.334;2023-02-13T04:19:32;103266.56;;;-5.03;100.00
57600;BME280;43426;43.594;24.334;2023-02-13T04:21:59;103293.75;;;-4.97;100.00
57600;BME280;43426;43.594;24.334;2023-02-13T04:24:26;103303.41;;;-5.03;100.00
57600;BME280;43426;43.594;24.334;2023-02-13T04:26:55;103278.00;;;-5.15;100.00
57600;BME280;43426;43.594;24.334;2023-02-13T04:29:22;103278.03;;;-5.18;100.00
57600;BME280;43426;43.594;24.334;2023-02-13T04:31:48;103292.00;;;-5.01;100.00
57600;BME280;43426;43.594;24.334;2023-02-13T04:34:14;103273.69;;;-5.25;100.00
57600;BME280;43426;43.594;24.334;2023-02-13T04:36:39;103277.19;;;-5.25;100.00
57600;BME280;43426;43.594;24.334;2023-02-13T04:39:05;103307.81;;;-5.04;100.00
57600;BME280;43426;43.594;24.334;2023-02-13T04:41:30;103318.34;;;-5.10;100.00
57600;BME280;43426;43.594;24.334;2023-02-13T04:43:55;103238.69;;;-5.57;100.00
57600;BME280;43426;43.594;24.334;2023-02-13T04:46:21;103278.09;;;-5.34;100.00
57600;BME280;43426;43.594;24.334;2023-02-13T04:48:46;103307.88;;;-5.18;100.00
57600;BME280;43426;43.594;24.334;2023-02-13T04:51:12;103279.88;;;-5.42;100.00
57600;BME280;43426;43.594;24.334;2023-02-13T04:53:37;103314.91;;;-5.21;100.00
57600;BME280;43426;43.594;24.334;2023-02-13T04:56:03;103307.03;;;-5.35;100.00
57600;BME280;43426;43.594;24.334;2023-02-13T04:58:29;103268.56;;;-5.70;100.00
57600;BME280;43426;43.594;24.334;2023-02-13T05:00:54;103322.84;;;-5.46;100.00
57600;BME280;43426;43.594;24.334;2023-02-13T05:03:20;103311.50;;;-5.60;100.00
57600;BME280;43426;43.594;24.334;2023-02-13T05:05:45;103328.16;;;-5.52;100.00
57600;BME280;43426;43.594;24.334;2023-02-13T05:08:10;103321.13;;;-5.62;100.00
57600;BME280;43426;43.594;24.334;2023-02-13T05:10:36;103307.97;;;-5.62;100.00
57600;BME280;43426;43.594;24.334;2023-02-13T05:13:02;103310.59;;;-5.55;100.00
57600;BME280;43426;43.594;24.334;2023-02-13T05:15:28;103328.09;;;-5.37;100.00
57600;BME280;43426;43.594;24.334;2023-02-13T05:17:53;103310.63;;;-5.64;100.00
57600;BME280;43426;43.594;24.334;2023-02-13T05:20:19;103343.03;;;-5.48;100.00
57600;BME280;43426;43.594;24.334;2023-02-13T05:22:49;103322.03;;;-5.70;100.00
57600;BME280;43426;43.594;24.334;2023-02-13T05:25:35;103315.00;;;-5.82;100.00
57600;BME280;43426;43.594;24.334;2023-02-13T05:28:00;103315.03;;;-5.77;100.00
57600;BME280;43426;43.594;24.334;2023-02-13T05:30:26;103348.31;;;-5.50;100.00
57600;BME280;43426;43.594;24.334;2023-02-13T05:32:51;103299.22;;;-5.68;100.00
57600;BME280;43426;43.594;24.334;2023-02-13T05:35:22;103290.47;;;-5.73;100.00
57600;BME280;43426;43.594;24.334;2023-02-13T05:37:49;103339.50;;;-5.45;100.00
57600;BME280;43426;43.594;24.334;2023-02-13T05:40:16;103349.16;;;-5.34;100.00
57600;BME280;43426;43.594;24.334;2023-02-13T05:42:42;103343.03;;;-5.54;100.00
57600;BME280;43426;43.594;24.334;2023-02-13T05:45:08;103353.56;;;-5.47;100.00
57600;BME280;43426;43.594;24.334;2023-02-13T05:47:35;103308.88;;;-5.62;100.00
57600;BME280;43426;43.594;24.334;2023-02-13T05:50:00;103369.25;;;-5.14;100.00
57600;BME280;43426;43.594;24.334;2023-02-13T05:52:26;103367.47;;;-4.97;100.00
57600;BME280;43426;43.594;24.334;2023-02-13T05:54:51;103367.44;;;-4.87;100.00
57600;BME280;43426;43.594;24.334;2023-02-13T05:57:17;103348.16;;;-4.99;100.00
57600;BME280;43426;43.594;24.334;2023-02-13T05:59:43;103377.94;;;-4.83;100.00
57600;BME280;43426;43.594;24.334;2023-02-13T06:02:08;103367.41;;;-4.84;100.00
57600;BME280;43426;43.594;24.334;2023-02-13T06:04:34;103367.34;;;-4.67;100.00
57600;BME280;43426;43.594;24.334;2023-02-13T06:06:59;103356.78;;;-4.59;100.00
57600;BME280;43426;43.594;24.334;2023-02-13T06:09:24;103369.81;;;-4.33;100.00
57600;BME280;43426;43.594;24.334;2023-02-13T06:11:50;103357.50;;;-4.34;100.00
57600;BME280;43426;43.594;24.334;2023-02-13T06:14:15;103349.53;;;-4.27;100.00
57600;BME280;43426;43.594;24.334;2023-02-13T06:16:44;103349.47;;;-4.16;100.00
57600;BME280;43426;43.594;24.334;2023-02-13T06:19:09;103360.78;;;-4.01;100.00
57600;BME280;43426;43.594;24.334;2023-02-13T06:21:35;103362.44;;;-3.85;100.00
57600;BME280;43426;43.594;24.334;2023-02-13T06:24:06;103391.09;;;-3.46;100.00
57600;BME280;43426;43.594;24.334;2023-02-13T06:26:32;103381.06;;;-3.13;100.00
57600;BME280;43426;43.594;24.334;2023-02-13T06:28:57;103348.44;;;-3.04;100.00
57600;BME280;43426;43.594;24.334;2023-02-13T06:31:22;103380.47;;;-2.62;100.00
57600;BME280;43426;43.594;24.334;2023-02-13T06:33:48;103366.06;;;-2.40;99.28
57600;BME280;43426;43.594;24.334;2023-02-13T06:36:13;103357.97;;;-2.29;99.14
57600;BME280;43426;43.594;24.334;2023-02-13T06:38:39;103365.66;;;-2.10;99.18
57600;BME280;43426;43.594;24.334;2023-02-13T06:41:06;103383.66;;;-1.78;98.23
57600;BME280;43426;43.594;24.334;2023-02-13T06:43:32;103368.59;;;-1.74;97.62
57600;BME280;43426;43.594;24.334;2023-02-13T06:45:58;103371.94;;;-1.63;98.89
57600;BME280;43426;43.594;24.334;2023-02-13T06:48:24;103367.22;;;-1.47;98.01
57600;BME280;43426;43.594;24.334;2023-02-13T06:50:52;103360.72;;;-1.29;98.23
57600;BME280;43426;43.594;24.334;2023-02-13T06:53:18;103373.44;;;-1.01;96.79
57600;BME280;43426;43.594;24.334;2023-02-13T06:55:51;103367.94;;;-0.92;95.93
57600;BME280;43426;43.594;24.334;2023-02-13T06:58:18;103378.03;;;-0.67;95.09
57600;BME280;43426;43.594;24.334;2023-02-13T07:00:43;103379.00;;;-0.29;94.06
57600;BME280;43426;43.594;24.334;2023-02-13T07:03:09;103375.28;;;-0.22;94.88
57600;BME280;43426;43.594;24.334;2023-02-13T07:05:34;103327.66;;;-0.28;93.35
57600;BME280;43426;43.594;24.334;2023-02-13T07:08:00;103349.28;;;-0.07;93.86
57600;BME280;43426;43.594;24.334;2023-02-13T07:10:25;103345.59;;;0.00;94.15
57600;BME280;43426;43.594;24.334;2023-02-13T07:12:51;103353.66;;;0.64;91.46
57600;BME280;43426;43.594;24.334;2023-02-13T07:15:19;103366.72;;;0.74;92.33
57600;BME280;43426;43.594;24.334;2023-02-13T07:17:45;103368.28;;;0.81;92.66
57600;BME280;43426;43.594;24.334;2023-02-13T07:20:10;103349.72;;;0.79;94.48
57600;BME280;43426;43.594;24.334;2023-02-13T07:22:36;103383.00;;;1.24;93.24
57600;BME280;43426;43.594;24.334;2023-02-13T07:25:01;103378.28;;;1.34;93.01
57600;BME280;43426;43.594;24.334;2023-02-13T07:27:27;103360.50;;;1.36;93.13
57600;BME280;43426;43.594;24.334;2023-02-13T07:29:54;103382.50;;;1.71;nan
57600;BME280;43426;43.594;24.334;2023-02-13T07:32:20;103350.78;;;1.63;90.90
57600;BME280;43426;43.594;24.334;2023-02-13T07:34:46;103369.09;;;1.74;92.71
57600;BME280;43426;43.594;24.334;2023-02-13T07:37:11;103365.66;;;1.70;92.49
57600;BME280;43426;43.594;24.334;2023-02-13T07:39:37;103371.56;;;1.80;93.16
57600;BME280;43426;43.594;24.334;2023-02-13T07:42:04;103376.41;;;2.22;89.10
57600;BME280;43426;43.594;24.334;2023-02-13T07:44:30;103356.94;;;2.20;90.19
57600;BME280;43426;43.594;24.334;2023-02-13T07:46:55;103368.53;;;2.19;89.68
57600;BME280;43426;43.594;24.334;2023-02-13T07:49:20;103351.00;;;2.12;89.19
57600;BME280;43426;43.594;24.334;2023-02-13T07:51:46;103341.59;;;2.29;89.37
57600;BME280;43426;43.594;24.334;2023-02-13T07:54:11;103327.91;;;2.38;87.38
57600;BME280;43426;43.594;24.334;2023-02-13T07:56:36;103366.59;;;2.75;87.08
57600;BME280;43426;43.594;24.334;2023-02-13T07:59:02;103341.25;;;2.88;87.50
57600;BME280;43426;43.594;24.334;2023-02-13T08:01:27;103352.25;;;3.27;84.20
57600;BME280;43426;43.594;24.334;2023-02-13T08:03:53;103339.28;;;3.41;82.41
57600;BME280;43426;43.594;24.334;2023-02-13T08:06:20;103349.69;;;3.47;83.57
57600;BME280;43426;43.594;24.334;2023-02-13T08:08:45;103366.28;;;3.55;83.65
57600;BME280;43426;43.594;24.334;2023-02-13T08:11:27;103332.47;;;3.56;83.59
57600;BME280;43426;43.594;24.334;2023-02-13T08:14:14;103346.19;;;3.91;81.77
57600;BME280;43426;43.594;24.334;2023-02-13T08:16:39;103332.97;;;3.88;81.10
57600;BME280;43426;43.594;24.334;2023-02-13T08:19:04;103334.41;;;4.17;80.49
57600;BME280;43426;43.594;24.334;2023-02-13T08:21:30;103327.59;;;4.10;80.63
57600;BME280;43426;43.594;24.334;2023-02-13T08:23:56;103337.13;;;4.58;79.05
57600;BME280;43426;43.594;24.334;2023-02-13T08:26:21;103348.13;;;4.71;79.80
57600;BME280;43426;43.594;24.334;2023-02-13T08:28:47;103345.50;;;4.90;79.52
57600;BME280;43426;43.594;24.334;2023-02-13T08:31:12;103338.94;;;5.36;77.16
57600;BME280;43426;43.594;24.334;2023-02-13T08:33:38;103343.78;;;5.66;75.20
57600;BME280;43426;43.594;24.334;2023-02-13T08:36:05;103325.69;;;5.71;75.75
57600;BME280;43426;43.594;24.334;2023-02-13T08:38:31;103331.78;;;5.92;72.91
57600;BME280;43426;43.594;24.334;2023-02-13T08:40:57;103357.00;;;6.07;72.58
57600;BME280;43426;43.594;24.334;2023-02-13T08:43:23;103332.38;;;5.99;73.83
57600;BME280;43426;43.594;24.334;2023-02-13T08:45:48;103349.91;;;6.41;72.90
57600;BME280;43426;43.594;24.334;2023-02-13T08:48:14;103342.41;;;6.47;72.89
57600;BME280;43426;43.594;24.334;2023-02-13T08:50:39;103343.13;;;6.51;71.95
57600;BME280;43426;43.594;24.334;2023-02-13T08:53:05;103346.88;;;6.64;71.61
57600;BME280;43426;43.594;24.334;2023-02-13T08:55:30;103320.69;;;6.70;72.88
57600;BME280;43426;43.594;24.334;2023-02-13T08:58:03;103318.00;;;6.70;71.29
57600;BME280;43426;43.594;24.334;2023-02-13T09:00:29;103350.47;;;6.98;70.23
57600;BME280;43426;43.594;24.334;2023-02-13T09:02:58;103345.75;;;7.20;69.08
57600;BME280;43426;43.594;24.334;2023-02-13T09:05:24;103325.00;;;6.90;69.19
57600;BME280;43426;43.594;24.334;2023-02-13T09:07:49;103333.59;;;6.96;67.50
57600;BME280;43426;43.594;24.334;2023-02-13T09:10:15;103329.91;;;6.81;69.96
57600;BME280;43426;43.594;24.334;2023-02-13T09:12:40;103341.13;;;7.06;69.36
57600;BME280;43426;43.594;24.334;2023-02-13T09:15:06;103339.00;;;7.44;66.60
57600;BME280;43426;43.594;24.334;2023-02-13T09:17:31;103300.44;;;7.29;64.51
57600;BME280;43426;43.594;24.334;2023-02-13T09:19:57;103326.00;;;7.21;65.24
57600;BME280;43426;43.594;24.334;2023-02-13T09:22:22;103316.66;;;7.44;64.72
57600;BME280;43426;43.594;24.334;2023-02-13T09:24:48;103341.56;;;7.14;64.69
57600;BME280;43426;43.594;24.334;2023-02-13T09:27:13;103337.50;;;7.07;66.71
57600;BME280;43426;43.594;24.334;2023-02-13T09:29:38;103295.44;;;7.23;66.11
57600;BME280;43426;43.594;24.334;2023-02-13T09:32:04;103301.16;;;7.33;64.05
57600;BME280;43426;43.594;24.334;2023-02-13T09:34:30;103329.03;;;7.30;65.47
57600;BME280;43426;43.594;24.334;2023-02-13T09:36:55;103336.69;;;7.38;64.86
57600;BME280;43426;43.594;24.334;2023-02-13T09:39:20;103298.72;;;7.28;64.57
57600;BME280;43426;43.594;24.334;2023-02-13T09:41:48;103300.28;;;7.32;65.72
57600;BME280;43426;43.594;24.334;2023-02-13T09:44:37;103321.41;;;7.87;65.02
57600;BME280;43426;43.594;24.334;2023-02-13T09:49:56;103274.91;;;7.84;63.37
57600;BME280;43426;43.594;24.334;2023-02-13T09:52:26;103302.59;;;8.17;64.10
57600;BME280;43426;43.594;24.334;2023-02-13T09:54:52;103305.19;;;8.49;62.31
57600;BME280;43426;43.594;24.334;2023-02-13T09:57:33;103286.25;;;8.20;62.10
57600;BME280;43426;43.594;24.334;2023-02-13T10:00:12;103281.81;;;8.19;61.09
57600;BME280;43426;43.594;24.334;2023-02-13T10:02:54;103291.47;;;8.38;63.10
57600;BME280;43426;43.594;24.334;2023-02-13T10:21:52;103263.50;;;8.40;60.45
57600;BME280;43426;43.594;24.334;2023-02-13T10:24:30;103272.28;;;8.58;60.58
57600;BME280;43426;43.594;24.334;2023-02-13T10:27:00;103253.97;;;8.79;59.16
57600;BME280;43426;43.594;24.334;2023-02-13T10:29:43;103240.09;;;9.00;59.41
57600;BME280;43426;43.594;24.334;2023-02-13T10:35:03;103248.63;;;9.07;59.67
57600;BME280;43426;43.594;24.334;2023-02-13T10:37:38;103244.00;;;9.09;58.86
57600;BME280;43426;43.594;24.334;2023-02-13T10:40:09;103256.94;;;8.89;58.35
57600;BME280;43426;43.594;24.334;2023-02-13T10:42:43;103230.66;;;9.07;59.37
57600;BME280;43426;43.594;24.334;2023-02-13T10:50:25;103213.69;;;9.19;57.53
57600;BME280;43426;43.594;24.334;2023-02-13T10:53:16;103241.16;;;8.97;58.53
57600;BME280;43426;43.594;24.334;2023-02-13T11:01:07;103199.19;;;9.08;57.95
57600;BME280;43426;43.594;24.334;2023-02-13T11:03:34;103196.78;;;9.03;58.11
57600;BME280;43426;43.594;24.334;2023-02-13T11:06:04;103197.63;;;9.18;60.26
57600;BME280;43426;43.594;24.334;2023-02-13T11:08:42;103195.97;;;9.43;58.14
57600;BME280;43426;43.594;24.334;2023-02-13T11:11:34;103217.38;;;9.59;56.24
57600;BME280;43426;43.594;24.334;2023-02-13T11:14:20;103206.66;;;9.44;57.52
57600;BME280;43426;43.594;24.334;2023-02-13T11:17:02;103206.50;;;9.60;57.55
57600;BME280;43426;43.594;24.334;2023-02-13T11:19:50;103211.25;;;9.69;56.10
57600;BME280;43426;43.594;24.334;2023-02-13T11:22:33;103209.78;;;9.51;56.83
57600;BME280;43426;43.594;24.334;2023-02-13T11:25:17;103204.41;;;9.51;58.42
57600;BME280;43426;43.594;24.334;2023-02-13T11:27:46;103181.78;;;9.53;56.88
57600;BME280;43426;43.594;24.334;2023-02-13T11:33:06;103194.09;;;9.70;56.29
57600;BME280;43426;43.594;24.334;2023-02-13T11:35:45;103180.44;;;9.74;56.32
57600;BME280;43426;43.594;24.334;2023-02-13T11:40:44;103169.09;;;9.68;56.39
57600;BME280;43426;43.594;24.334;2023-02-13T11:43:24;103142.22;;;9.54;56.41
57600;BME280;43426;43.594;24.334;2023-02-13T11:46:28;103167.47;;;9.66;55.44
57600;BME280;43426;43.594;24.334;2023-02-13T11:49:02;103163.34;;;9.60;55.83
57600;BME280;43426;43.594;24.334;2023-02-13T11:51:39;103166.28;;;9.57;56.49
57600;BME280;43426;43.594;24.334;2023-02-13T11:54:05;103160.44;;;9.63;56.34
57600;BME280;43426;43.594;24.334;2023-02-13T11:56:48;103135.72;;;9.44;55.84
57600;BME280;43426;43.594;24.334;2023-02-13T11:59:14;103127.47;;;9.19;56.55
57600;BME280;43426;43.594;24.334;2023-02-13T12:01:39;103135.00;;;9.54;58.09
57600;BME280;43426;43.594;24.334;2023-02-13T12:04:15;103146.16;;;9.88;56.67
57600;BME280;43426;43.594;24.334;2023-02-13T12:07:38;103145.06;;;9.91;53.98
57600;BME280;43426;43.594;24.334;2023-02-13T12:09:48;103147.63;;;9.80;55.88
57600;BME280;43426;43.594;24.334;2023-02-13T12:12:20;103104.28;;;9.57;55.02
57600;BME280;43426;43.594;24.334;2023-02-13T12:14:47;103096.53;;;9.78;55.11
57600;BME280;43426;43.594;24.334;2023-02-13T12:17:21;103122.63;;;10.03;54.78
57600;BME280;43426;43.594;24.334;2023-02-13T12:19:48;103104.94;;;9.86;54.38
57600;BME280;43426;43.594;24.334;2023-02-13T12:22:35;103092.63;;;9.82;55.26
57600;BME280;43426;43.594;24.334;2023-02-13T12:28:02;103106.19;;;10.32;54.69
57600;BME280;43426;43.594;24.334;2023-02-13T12:33:35;103093.75;;;10.55;55.01
57600;BME280;43426;43.594;24.334;2023-02-13T12:47:04;103084.84;;;10.90;51.08
57600;BME280;43426;43.594;24.334;2023-02-13T13:15:17;103056.19;;;10.02;52.75
57600;BME280;43426;43.594;24.334;2023-02-13T13:18:07;103056.72;;;9.95;52.68
57600;BME280;43426;43.594;24.334;2023-02-13T13:20:57;103054.66;;;9.98;52.67
57600;BME280;43426;43.594;24.334;2023-02-13T13:24:04;103030.72;;;9.94;52.81
57600;BME280;43426;43.594;24.334;2023-02-13T13:26:43;103046.97;;;10.18;52.24
57600;BME280;43426;43.594;24.334;2023-02-13T13:29:16;103027.50;;;9.76;52.05
57600;BME280;43426;43.594;24.334;2023-02-13T13:31:50;103033.97;;;9.86;53.50
57600;BME280;43426;43.594;24.334;2023-02-13T13:34:24;103036.31;;;10.03;52.81
57600;BME280;43426;43.594;24.334;2023-02-13T13:37:02;103013.69;;;9.93;53.21
57600;BME280;43426;43.594;24.334;2023-02-13T13:39:46;103031.09;;;10.13;53.48
57600;BME280;43426;43.594;24.334;2023-02-13T13:47:30;103025.69;;;10.26;51.71
57600;BME280;43426;43.594;24.334;2023-02-13T13:50:02;103024.91;;;10.37;51.97
57600;BME280;43426;43.594;24.334;2023-02-13T13:52:32;103002.06;;;10.54;51.60
57600;BME280;43426;43.594;24.334;2023-02-13T13:55:00;103016.06;;;10.59;51.38
57600;BME280;43426;43.594;24.334;2023-02-13T14:00:22;103013.41;;;10.09;51.26
57600;BME280;43426;43.594;24.334;2023-02-13T14:02:50;102986.31;;;9.74;51.60
57600;BME280;43426;43.594;24.334;2023-02-13T14:05:21;103011.09;;;9.92;51.79
57600;BME280;43426;43.594;24.334;2023-02-13T14:07:52;103007.41;;;10.05;51.34
57600;BME280;43426;43.594;24.334;2023-02-13T14:13:00;103011.31;;;9.76;52.55
57600;BME280;43426;43.594;24.334;2023-02-13T14:18:00;103002.72;;;10.20;51.65
57600;BME280;43426;43.594;24.334;2023-02-13T14:20:42;102987.81;;;10.52;51.38
57600;BME280;43426;43.594;24.334;2023-02-13T14:28:40;102972.09;;;10.46;51.10
57600;BME280;43426;43.594;24.334;2023-02-13T14:31:13;102986.50;;;10.57;50.04
57600;BME280;43426;43.594;24.334;2023-02-13T14:33:42;102987.78;;;10.65;50.30
57600;BME280;43426;43.594;24.334;2023-02-13T14:36:19;102980.72;;;10.51;49.00
57600;BME280;43426;43.594;24.334;2023-02-13T14:38:54;102969.69;;;10.17;49.96
57600;BME280;43426;43.594;24.334;2023-02-13T14:46:47;102987.31;;;10.10;50.01
57600;BME280;43426;43.594;24.334;2023-02-13T14:49:18;102968.38;;;9.85;49.33
57600;BME280;43426;43.594;24.334;2023-02-13T14:51:48;102982.59;;;10.00;49.98
57600;BME280;43426;43.594;24.334;2023-02-13T14:56:46;102969.09;;;9.37;51.39
57600;BME280;43426;43.594;24.334;2023-02-13T14:59:23;102950.44;;;9.22;51.97
57600;BME280;43426;43.594;24.334;2023-02-13T15:02:00;102978.47;;;9.32;52.74
57600;BME280;43426;43.594;24.334;2023-02-13T15:04:39;102975.97;;;9.29;52.63
57600;BME280;43426;43.594;24.334;2023-02-13T15:07:13;102951.09;;;9.25;52.55
57600;BME280;43426;43.594;24.334;2023-02-13T15:09:45;102945.47;;;9.02;52.91
57600;BME280;43426;43.594;24.334;2023-02-13T15:12:32;102965.16;;;8.90;53.95
57600;BME280;43426;43.594;24.334;2023-02-13T15:14:58;102951.78;;;8.76;54.43
57600;BME280;43426;43.594;24.334;2023-02-13T15:17:28;102923.78;;;8.38;55.22
57600;BME280;43426;43.594;24.334;2023-02-13T15:20:18;102913.94;;;8.24;55.65
57600;BME280;43426;43.594;24.334;2023-02-13T15:22:46;102946.56;;;8.32;56.12